Time;durP1;ratioP1;P1;durP2;ratioP2;P2;SDS_P1;SDS_P2;PMS_P1;PMS_P2;Temp;Humidity;BMP_temperature;BMP_pressure;BME280_temperature;BME280_humidity;BME280_pressure;Samples;Min_cycle;Max_cycle;Signal;HPM_P1;HPM_P2
2022/05/02 00:00:10;;;;;;;0.40;0.30;;;9.10;99.90;;;;;;5011154;28;20393;-73
2022/05/02 00:02:37;;;;;;;0.40;0.30;;;9.20;99.90;;;;;;5010432;28;20401;-73
2022/05/02 00:05:04;;;;;;;0.40;0.28;;;9.20;99.90;;;;;;5010123;28;20440;-72
2022/05/02 00:07:30;;;;;;;0.40;0.30;;;9.20;99.90;;;;;;5010876;28;20397;-73
2022/05/02 00:09:56;;;;;;;0.40;0.20;;;9.20;99.90;;;;;;5009101;28;20952;-71
2022/05/02 00:12:22;;;;;;;0.40;0.30;;;9.10;99.90;;;;;;5010575;28;20409;-73
2022/05/02 00:14:48;;;;;;;0.40;0.40;;;9.20;99.90;;;;;;5010264;28;20893;-76
2022/05/02 00:17:13;;;;;;;0.40;0.20;;;9.20;99.90;;;;;;5010497;28;20424;-72
2022/05/02 00:19:39;;;;;;;0.50;0.50;;;9.20;99.90;;;;;;5011041;28;20882;-73
2022/05/02 00:22:05;;;;;;;0.40;0.30;;;9.10;99.90;;;;;;5010870;28;20397;-73
2022/05/02 00:24:31;;;;;;;0.40;0.30;;;9.20;99.90;;;;;;5010648;28;20389;-72
2022/05/02 00:26:57;;;;;;;0.40;0.40;;;8.90;99.90;;;;;;5009934;28;20444;-77
2022/05/02 00:29:24;;;;;;;0.40;0.30;;;8.90;99.90;;;;;;5010594;28;20437;-72
2022/05/02 00:31:50;;;;;;;0.40;0.30;;;9.00;99.90;;;;;;5015446;28;20416;-72
2022/05/02 00:34:15;;;;;;;0.40;0.30;;;9.00;99.90;;;;;;5009908;28;20454;-72
2022/05/02 00:36:41;;;;;;;0.70;0.70;;;9.10;99.90;;;;;;5010744;28;20733;-73
2022/05/02 00:39:07;;;;;;;0.40;0.20;;;9.10;99.90;;;;;;5008820;28;20396;-74
2022/05/02 00:41:33;;;;;;;0.40;0.20;;;9.10;99.90;;;;;;5010504;28;20440;-72
2022/05/02 00:43:59;;;;;;;0.40;0.30;;;8.90;99.90;;;;;;5010583;28;20400;-72
2022/05/02 00:46:26;;;;;;;0.40;0.40;;;8.90;99.90;;;;;;5010014;28;20467;-72
2022/05/02 00:48:53;;;;;;;0.40;0.30;;;8.90;99.90;;;;;;5001455;28;20910;-72
2022/05/02 00:51:19;;;;;;;0.40;0.20;;;8.80;99.90;;;;;;4995623;28;20400;-73
2022/05/02 00:53:47;;;;;;;0.40;0.40;;;8.60;99.90;;;;;;5010562;28;20762;-72
2022/05/02 00:56:16;;;;;;;0.40;0.20;;;8.60;99.90;;;;;;5011108;28;20381;-75
2022/05/02 00:58:41;;;;;;;0.40;0.30;;;8.60;99.90;;;;;;5009269;28;20407;-71
2022/05/02 01:01:07;;;;;;;0.40;0.30;;;8.60;99.90;;;;;;5009316;28;20484;-73
2022/05/02 01:03:34;;;;;;;0.40;0.20;;;8.50;99.90;;;;;;5008087;28;20659;-73
2022/05/02 01:08:45;;;;;;;0.40;0.20;;;8.30;99.90;;;;;;5009991;28;20458;-72
2022/05/02 01:11:11;;;;;;;0.60;0.60;;;8.10;99.90;;;;;;5010332;28;20873;-72
2022/05/02 01:13:45;;;;;;;0.40;0.20;;;8.30;99.90;;;;;;5008405;28;20504;-72
2022/05/02 01:16:22;;;;;;;0.40;0.20;;;8.40;99.90;;;;;;4998725;28;20777;-72
2022/05/02 01:18:50;;;;;;;0.95;0.80;;;8.30;99.90;;;;;;5009150;28;20411;-72
2022/05/02 01:21:25;;;;;;;0.40;0.20;;;8.30;99.90;;;;;;5010292;28;20397;-71
2022/05/02 01:23:53;;;;;;;0.40;0.20;;;8.30;99.90;;;;;;5010325;28;20447;-71
2022/05/02 01:26:19;;;;;;;0.40;0.20;;;8.40;99.90;;;;;;5014186;28;20385;-71
2022/05/02 01:28:47;;;;;;;0.40;0.20;;;8.40;99.90;;;;;;5021314;28;20777;-71
2022/05/02 01:31:14;;;;;;;0.40;0.20;;;8.30;99.90;;;;;;5013237;28;20397;-72
2022/05/02 01:33:40;;;;;;;0.40;0.30;;;8.30;99.90;;;;;;5013523;28;20408;-75
2022/05/02 01:36:06;;;;;;;0.40;0.20;;;8.30;99.90;;;;;;5012178;28;20412;-72
2022/05/02 01:38:33;;;;;;;0.40;0.20;;;8.20;99.90;;;;;;5013599;28;20416;-72
2022/05/02 01:40:59;;;;;;;0.40;0.20;;;8.30;99.90;;;;;;5012613;28;20413;-72
2022/05/02 01:43:27;;;;;;;0.50;0.50;;;8.20;99.90;;;;;;5013037;28;20484;-73
2022/05/02 01:45:53;;;;;;;0.40;0.20;;;8.10;99.90;;;;;;5011885;28;20908;-72
2022/05/02 01:48:19;;;;;;;0.80;0.60;;;8.30;99.90;;;;;;5013942;28;20396;-71
2022/05/02 01:50:44;;;;;;;2.60;0.70;;;8.20;99.90;;;;;;5013377;28;20393;-72
2022/05/02 01:53:10;;;;;;;0.40;0.30;;;8.10;99.90;;;;;;5012905;28;20550;-72
2022/05/02 01:55:35;;;;;;;0.40;0.30;;;8.20;99.90;;;;;;5013026;28;20417;-72
2022/05/02 01:58:01;;;;;;;0.50;0.50;;;8.10;99.90;;;;;;5011595;28;20396;-72
2022/05/02 02:00:26;;;;;;;0.40;0.30;;;8.10;99.90;;;;;;5011279;28;20866;-72
2022/05/02 02:02:52;;;;;;;0.40;0.20;;;8.10;99.90;;;;;;5011893;28;20488;-73
2022/05/02 02:08:02;;;;;;;0.40;0.30;;;8.00;99.90;;;;;;5012406;28;20472;-76
2022/05/02 02:10:28;;;;;;;0.40;0.20;;;8.10;99.90;;;;;;5011893;28;20381;-72
2022/05/02 02:12:53;;;;;;;0.40;0.30;;;7.90;99.90;;;;;;5012559;28;20882;-72
2022/05/02 02:15:19;;;;;;;0.40;0.30;;;7.90;99.90;;;;;;5011534;28;20452;-72
2022/05/02 02:17:44;;;;;;;0.40;0.20;;;7.90;99.90;;;;;;5012406;28;20474;-73
2022/05/02 02:20:12;;;;;;;0.40;0.40;;;7.90;99.90;;;;;;5012776;28;20397;-76
2022/05/02 02:22:38;;;;;;;1.10;0.60;;;7.80;99.90;;;;;;5012722;28;20425;-72
2022/05/02 02:25:04;;;;;;;0.40;0.30;;;7.80;99.90;;;;;;5012620;28;20420;-72
2022/05/02 02:27:31;;;;;;;0.40;0.20;;;7.80;99.90;;;;;;5012318;28;20496;-72
2022/05/02 02:29:57;;;;;;;0.40;0.40;;;7.70;99.90;;;;;;5012964;28;20395;-72
2022/05/02 02:32:23;;;;;;;0.40;0.20;;;7.70;99.90;;;;;;5024450;28;20411;-72
2022/05/02 02:34:48;;;;;;;0.40;0.20;;;7.60;99.90;;;;;;5032640;28;20391;-72
2022/05/02 02:37:15;;;;;;;0.40;0.30;;;7.60;99.90;;;;;;5014456;28;20405;-73
2022/05/02 02:39:41;;;;;;;0.40;0.30;;;7.60;99.90;;;;;;5010708;28;20449;-72
2022/05/02 02:42:07;;;;;;;0.40;0.20;;;7.60;99.90;;;;;;5012625;28;20734;-72
2022/05/02 02:44:33;;;;;;;0.40;0.20;;;7.60;99.90;;;;;;5011921;28;20400;-72
2022/05/02 02:46:59;;;;;;;0.40;0.20;;;7.60;99.90;;;;;;5012883;28;20385;-72
2022/05/02 02:49:24;;;;;;;0.40;0.30;;;7.70;99.90;;;;;;5012141;28;20397;-73
2022/05/02 02:51:50;;;;;;;0.40;0.40;;;7.60;99.90;;;;;;5011309;28;20428;-72
2022/05/02 02:54:16;;;;;;;0.40;0.30;;;7.60;99.90;;;;;;5012286;28;20434;-72
2022/05/02 02:56:42;;;;;;;0.40;0.20;;;7.60;99.90;;;;;;5011278;28;20489;-72
2022/05/02 02:59:07;;;;;;;0.40;0.20;;;7.50;99.90;;;;;;5011069;28;20467;-72
2022/05/02 03:01:33;;;;;;;0.40;0.30;;;7.40;99.90;;;;;;5010122;28;20468;-73
2022/05/02 03:06:01;;;;;;;0.40;0.20;;;7.40;99.90;;;;;;5011206;28;20476;-72
2022/05/02 03:06:45;;;;;;;0.40;0.20;;;7.50;99.90;;;;;;5010344;28;20409;-73
2022/05/02 03:09:10;;;;;;;0.60;0.60;;;7.40;99.90;;;;;;5011894;28;20768;-72
2022/05/02 03:11:36;;;;;;;0.40;0.40;;;7.40;99.90;;;;;;5011597;28;20408;-72
2022/05/02 03:14:02;;;;;;;0.40;0.30;;;7.40;99.90;;;;;;5011562;28;20408;-72
2022/05/02 03:16:28;;;;;;;0.40;0.30;;;7.30;99.90;;;;;;5010450;28;20399;-72
2022/05/02 03:18:53;;;;;;;0.40;0.20;;;7.30;99.90;;;;;;5011285;28;20388;-73
2022/05/02 03:21:19;;;;;;;0.40;0.20;;;7.30;99.90;;;;;;5011942;28;20446;-73
2022/05/02 03:23:45;;;;;;;0.40;0.20;;;7.10;99.90;;;;;;5012262;28;20392;-72
2022/05/02 03:26:10;;;;;;;0.40;0.20;;;7.30;99.90;;;;;;5007875;28;20970;-72
2022/05/02 03:28:36;;;;;;;0.60;0.60;;;7.20;99.90;;;;;;5010995;28;20419;-72
2022/05/02 03:31:02;;;;;;;0.40;0.20;;;7.30;99.90;;;;;;5011221;28;20396;-73
2022/05/02 03:33:27;;;;;;;0.40;0.30;;;7.30;99.90;;;;;;5031830;28;20411;-72
2022/05/02 03:35:53;;;;;;;0.40;0.20;;;7.10;99.90;;;;;;5029656;28;20871;-72
2022/05/02 03:38:19;;;;;;;0.50;0.50;;;7.20;99.90;;;;;;5011215;28;20401;-72
2022/05/02 03:40:44;;;;;;;0.40;0.30;;;7.10;99.90;;;;;;5010881;28;20444;-72
2022/05/02 03:43:10;;;;;;;0.50;0.40;;;7.10;99.90;;;;;;5014266;28;20414;-73
2022/05/02 03:45:36;;;;;;;0.75;0.63;;;7.20;99.90;;;;;;5005431;28;20411;-72
2022/05/02 03:48:04;;;;;;;0.40;0.20;;;7.10;99.90;;;;;;5009498;28;21566;-74
2022/05/02 03:50:30;;;;;;;0.40;0.30;;;7.10;99.90;;;;;;5010331;28;20873;-72
2022/05/02 03:52:56;;;;;;;0.40;0.20;;;7.10;99.90;;;;;;5011388;28;20420;-72
2022/05/02 03:55:23;;;;;;;0.40;0.20;;;6.90;99.90;;;;;;5011229;28;20487;-72
2022/05/02 03:57:48;;;;;;;0.40;0.20;;;6.80;99.90;;;;;;5001654;28;20398;-72
2022/05/02 04:00:14;;;;;;;0.40;0.20;;;7.00;99.90;;;;;;4991984;28;20390;-73
2022/05/02 04:02:41;;;;;;;0.50;0.40;;;7.10;99.90;;;;;;5010114;28;20397;-72
2022/05/02 04:05:07;;;;;;;0.40;0.30;;;7.10;99.90;;;;;;5010504;28;20889;-72
2022/05/02 04:07:33;;;;;;;0.40;0.20;;;7.10;99.90;;;;;;5009972;28;20411;-72
2022/05/02 04:09:59;;;;;;;0.40;0.20;;;7.20;99.90;;;;;;5009704;28;20492;-71
2022/05/02 04:12:25;;;;;;;0.40;0.30;;;7.20;99.90;;;;;;5010792;28;20483;-76
2022/05/02 04:14:50;;;;;;;0.40;0.20;;;7.00;99.90;;;;;;5010457;28;20444;-72
2022/05/02 04:17:16;;;;;;;0.40;0.30;;;7.00;99.90;;;;;;5010065;28;20539;-73
2022/05/02 04:19:42;;;;;;;0.40;0.30;;;7.00;99.90;;;;;;5009971;28;20401;-72
2022/05/02 04:22:08;;;;;;;0.40;0.20;;;7.20;99.90;;;;;;5011221;28;20395;-73
2022/05/02 04:24:33;;;;;;;0.40;0.20;;;7.20;99.90;;;;;;5007814;28;20408;-76
2022/05/02 04:26:59;;;;;;;0.40;0.20;;;7.20;99.90;;;;;;4999138;28;20921;-73
2022/05/02 04:29:25;;;;;;;0.60;0.60;;;7.10;99.90;;;;;;5008913;28;20458;-72
2022/05/02 04:31:51;;;;;;;0.40;0.20;;;6.90;99.90;;;;;;5017470;28;20820;-73
2022/05/02 04:34:16;;;;;;;0.40;0.20;;;6.90;99.90;;;;;;5012786;28;20479;-72
2022/05/02 04:36:42;;;;;;;0.40;0.40;;;7.00;99.90;;;;;;5025239;28;20423;-75
2022/05/02 04:39:08;;;;;;;0.70;0.70;;;7.00;99.90;;;;;;5011075;28;20530;-72
2022/05/02 04:41:34;;;;;;;0.40;0.20;;;7.00;99.90;;;;;;5010480;28;20815;-72
2022/05/02 04:43:59;;;;;;;0.50;0.50;;;7.00;99.90;;;;;;5010532;28;20397;-72
2022/05/02 04:46:26;;;;;;;1.70;0.90;;;7.00;99.90;;;;;;5010064;28;20396;-72
2022/05/02 04:48:53;;;;;;;0.40;0.20;;;7.10;99.90;;;;;;5009282;28;20874;-73
2022/05/02 04:51:18;;;;;;;1.00;1.00;;;7.00;99.90;;;;;;5025698;28;20920;-72
2022/05/02 04:53:44;;;;;;;0.40;0.20;;;7.10;99.90;;;;;;5010780;28;20417;-72
2022/05/02 04:56:11;;;;;;;0.40;0.30;;;7.20;99.90;;;;;;5024874;28;20400;-72
2022/05/02 04:58:37;;;;;;;0.40;0.33;;;7.30;99.90;;;;;;5010210;28;20986;-73
2022/05/02 05:01:06;;;;;;;0.40;0.30;;;7.30;99.90;;;;;;5013142;28;20408;-73
2022/05/02 05:03:32;;;;;;;0.50;0.30;;;7.40;99.90;;;;;;5013165;28;20777;-73
2022/05/02 05:05:57;;;;;;;0.40;0.30;;;7.50;99.90;;;;;;5013176;28;20409;-76
2022/05/02 05:08:23;;;;;;;0.40;0.20;;;7.50;99.90;;;;;;5013864;28;20415;-72
2022/05/02 05:11:05;;;;;;;0.60;0.60;;;7.50;99.90;;;;;;5014703;28;20789;-72
2022/05/02 05:13:42;;;;;;;0.40;0.20;;;7.50;99.90;;;;;;5014834;28;20434;-72
2022/05/02 05:16:20;;;;;;;0.40;0.20;;;7.40;99.90;;;;;;5013083;28;20416;-75
2022/05/02 05:18:51;;;;;;;0.40;0.20;;;7.50;99.90;;;;;;5014128;28;20445;-72
2022/05/02 05:21:40;;;;;;;0.40;0.40;;;7.40;99.90;;;;;;5012514;28;20487;-73
2022/05/02 05:24:27;;;;;;;0.40;0.20;;;7.50;99.90;;;;;;5010618;28;20420;-73
2022/05/02 05:27:24;;;;;;;0.90;0.60;;;7.50;99.90;;;;;;5009755;28;20400;-73
2022/05/02 05:30:06;;;;;;;0.40;0.20;;;7.50;99.90;;;;;;5010163;28;20413;-72
2022/05/02 05:32:57;;;;;;;1.10;1.10;;;7.60;99.90;;;;;;5020959;28;20904;-73
2022/05/02 05:35:30;;;;;;;0.40;0.20;;;7.60;99.90;;;;;;5013298;28;20393;-72
2022/05/02 05:38:23;;;;;;;0.40;0.30;;;7.70;99.90;;;;;;5011352;28;20968;-73
2022/05/02 05:41:17;;;;;;;0.50;0.50;;;7.70;99.90;;;;;;5013892;28;20491;-73
2022/05/02 05:44:06;;;;;;;0.40;0.20;;;7.90;99.90;;;;;;5012802;28;20407;-73
2022/05/02 05:47:15;;;;;;;0.40;0.30;;;8.00;99.90;;;;;;5011450;28;20409;-72
2022/05/02 05:50:05;;;;;;;0.90;0.85;;;8.20;99.90;;;;;;5011138;28;20409;-73
2022/05/02 05:53:05;;;;;;;0.40;0.40;;;8.20;99.90;;;;;;5011662;28;20416;-73
2022/05/02 05:55:37;;;;;;;0.40;0.20;;;8.30;99.90;;;;;;5012566;28;20408;-76
2022/05/02 05:58:35;;;;;;;0.40;0.20;;;8.40;99.90;;;;;;5013931;28;20381;-72
2022/05/02 06:01:13;;;;;;;0.90;0.50;;;8.60;99.90;;;;;;5012401;28;20401;-73
2022/05/02 06:03:56;;;;;;;0.40;0.40;;;8.80;99.90;;;;;;5012482;28;20459;-72
2022/05/02 06:06:22;;;;;;;0.40;0.30;;;8.90;99.90;;;;;;5012810;28;20781;-73
2022/05/02 06:08:52;;;;;;;0.40;0.30;;;9.00;99.90;;;;;;5008568;28;20428;-74
2022/05/02 06:11:19;;;;;;;0.40;0.30;;;9.00;99.90;;;;;;5006642;28;20404;-73
2022/05/02 06:13:47;;;;;;;0.40;0.20;;;9.10;99.90;;;;;;5001602;28;20404;-73
2022/05/02 06:19:00;;;;;;;0.40;0.30;;;9.20;99.90;;;;;;5011786;28;20455;-72
2022/05/02 06:21:26;;;;;;;0.40;0.20;;;9.40;99.90;;;;;;5012711;28;20396;-72
2022/05/02 06:23:52;;;;;;;0.40;0.20;;;9.50;99.90;;;;;;5012099;28;20412;-73
2022/05/02 06:26:22;;;;;;;0.50;0.50;;;9.50;99.90;;;;;;5008689;28;20398;-72
2022/05/02 06:28:50;;;;;;;0.40;0.20;;;9.60;99.90;;;;;;5009341;28;20404;-76
2022/05/02 06:31:20;;;;;;;0.40;0.30;;;9.80;99.90;;;;;;5012498;28;20765;-72
2022/05/02 06:33:50;;;;;;;0.50;0.40;;;9.90;99.90;;;;;;5012200;28;20462;-72
2022/05/02 06:36:32;;;;;;;0.40;0.20;;;9.80;99.90;;;;;;5012264;28;20404;-72
2022/05/02 06:39:10;;;;;;;0.50;0.45;;;9.90;99.90;;;;;;5011979;28;20792;-73
2022/05/02 06:41:58;;;;;;;0.40;0.20;;;10.00;99.90;;;;;;5011925;28;20416;-73
2022/05/02 06:44:30;;;;;;;0.40;0.20;;;10.20;99.90;;;;;;5012722;28;20400;-71
2022/05/02 06:47:13;;;;;;;0.40;0.30;;;10.10;99.90;;;;;;5012708;28;20385;-76
2022/05/02 06:49:43;;;;;;;0.90;0.70;;;10.20;99.90;;;;;;5009450;28;20535;-73
2022/05/02 06:52:11;;;;;;;0.40;0.20;;;10.40;99.90;;;;;;5009387;28;20508;-71
2022/05/02 06:55:14;;;;;;;0.40;0.20;;;10.50;99.90;;;;;;5003954;28;20415;-71
2022/05/02 06:57:42;;;;;;;0.40;0.20;;;10.50;99.90;;;;;;5005974;28;20416;-74
2022/05/02 07:00:15;;;;;;;0.40;0.20;;;10.40;99.90;;;;;;5011349;28;20401;-73
2022/05/02 07:03:00;;;;;;;0.40;0.30;;;10.70;99.90;;;;;;5009719;28;20420;-72
2022/05/02 07:05:46;;;;;;;0.40;0.40;;;10.70;99.90;;;;;;5010646;28;20638;-72
2022/05/02 07:08:22;;;;;;;0.40;0.30;;;10.70;99.90;;;;;;5004606;28;20421;-73
2022/05/02 07:10:54;;;;;;;0.90;0.70;;;10.80;99.90;;;;;;5009792;28;20393;-73
2022/05/02 07:13:44;;;;;;;0.57;0.57;;;10.90;99.90;;;;;;5004683;28;20416;-73
2022/05/02 07:16:24;;;;;;;0.40;0.30;;;11.00;99.90;;;;;;5009911;28;20425;-76
2022/05/02 07:19:16;;;;;;;0.70;0.70;;;11.00;99.90;;;;;;5007603;28;20819;-73
2022/05/02 07:21:54;;;;;;;0.40;0.30;;;11.00;99.90;;;;;;5005963;28;20404;-72
2022/05/02 07:24:38;;;;;;;0.40;0.30;;;11.10;99.90;;;;;;5005909;28;20440;-73
2022/05/02 07:27:23;;;;;;;0.40;0.27;;;11.10;99.90;;;;;;5009071;28;20516;-73
2022/05/02 07:29:58;;;;;;;5.20;1.00;;;11.10;99.90;;;;;;5006239;28;20949;-72
2022/05/02 07:32:26;;;;;;;0.60;0.60;;;11.20;99.90;;;;;;5024064;28;20424;-73
2022/05/02 07:34:55;;;;;;;0.40;0.30;;;11.30;99.90;;;;;;4997409;28;20460;-72
2022/05/02 07:37:24;;;;;;;0.40;0.20;;;11.40;99.90;;;;;;4992463;28;20748;-71
2022/05/02 07:39:51;;;;;;;0.40;0.30;;;11.50;99.90;;;;;;4991716;28;20501;-72
2022/05/02 07:42:20;;;;;;;0.40;0.40;;;11.40;99.90;;;;;;5009306;28;20406;-72
2022/05/02 07:44:49;;;;;;;0.40;0.40;;;11.60;99.90;;;;;;5002586;28;20404;-72
2022/05/02 07:47:17;;;;;;;0.50;0.50;;;11.60;99.90;;;;;;5006987;28;20410;-72
2022/05/02 07:49:48;;;;;;;0.40;0.20;;;11.70;99.90;;;;;;5009207;28;20407;-73
2022/05/02 07:52:21;;;;;;;0.60;0.60;;;11.80;99.90;;;;;;5010761;28;20412;-71
2022/05/02 07:54:49;;;;;;;0.40;0.30;;;11.70;99.90;;;;;;5008766;28;20473;-71
2022/05/02 07:57:16;;;;;;;0.40;0.30;;;11.90;99.90;;;;;;5011105;28;20485;-72
2022/05/02 07:59:44;;;;;;;0.60;0.60;;;11.90;99.90;;;;;;5009006;28;20918;-72
2022/05/02 08:02:10;;;;;;;1.05;1.05;;;12.00;99.90;;;;;;5010046;28;20400;-72
2022/05/02 08:04:37;;;;;;;1.98;0.80;;;12.10;99.90;;;;;;5010615;28;20385;-74
2022/05/02 08:07:09;;;;;;;0.40;0.20;;;12.20;99.90;;;;;;5009079;28;20401;-71
2022/05/02 08:10:19;;;;;;;0.40;0.20;;;12.20;99.90;;;;;;5011077;28;20421;-70
2022/05/02 08:12:54;;;;;;;0.40;0.20;;;12.20;99.90;;;;;;5007388;28;20423;-78
2022/05/02 08:15:37;;;;;;;0.40;0.20;;;12.30;99.90;;;;;;4997626;28;20938;-69
2022/05/02 08:18:28;;;;;;;0.40;0.40;;;12.50;99.90;;;;;;5000633;28;20407;-71
2022/05/02 08:21:20;;;;;;;1.27;1.17;;;12.50;99.90;;;;;;5002740;28;20485;-72
2022/05/02 08:27:21;;;;;;;0.40;0.20;;;12.60;99.90;;;;;;4991521;28;20839;-70
2022/05/02 08:30:05;;;;;;;2.30;1.10;;;12.70;99.90;;;;;;4991598;28;20444;-70
2022/05/02 08:32:43;;;;;;;0.40;0.30;;;12.70;99.90;;;;;;5001760;28;20876;-72
2022/05/02 08:35:31;;;;;;;0.40;0.20;;;12.70;99.90;;;;;;5009964;28;20413;-71
2022/05/02 08:38:03;;;;;;;0.52;0.47;;;12.60;99.90;;;;;;5004588;28;20909;-72
2022/05/02 08:40:40;;;;;;;0.40;0.30;;;12.70;99.90;;;;;;4996525;28;20427;-71
2022/05/02 08:43:15;;;;;;;0.40;0.25;;;12.90;99.90;;;;;;5001307;28;20467;-74
2022/05/02 08:46:03;;;;;;;0.50;0.50;;;13.10;99.90;;;;;;5010461;28;20409;-71
2022/05/02 08:48:34;;;;;;;0.70;0.70;;;13.20;99.90;;;;;;5000392;28;20477;-70
2022/05/02 08:51:06;;;;;;;0.40;0.20;;;13.20;99.90;;;;;;4998237;28;20463;-70
2022/05/02 08:54:04;;;;;;;1.10;0.70;;;13.30;99.90;;;;;;5008749;28;20424;-71
2022/05/02 08:56:42;;;;;;;0.40;0.40;;;13.30;99.90;;;;;;5009742;28;20412;-71
2022/05/02 08:59:26;;;;;;;0.40;0.20;;;13.50;99.90;;;;;;5003196;28;20887;-71
2022/05/02 09:02:11;;;;;;;0.43;0.43;;;13.20;99.90;;;;;;5017980;28;20393;-71
2022/05/02 09:05:14;;;;;;;1.00;0.50;;;13.40;99.90;;;;;;5007902;28;20451;-71
2022/05/02 09:08:01;;;;;;;0.50;0.40;;;13.50;99.90;;;;;;5029590;28;20407;-71
2022/05/02 09:10:54;;;;;;;0.40;0.40;;;13.60;99.90;;;;;;5012626;28;20405;-71
2022/05/02 09:13:26;;;;;;;0.40;0.30;;;13.70;99.90;;;;;;5001119;28;20429;-73
2022/05/02 09:16:07;;;;;;;0.40;0.20;;;13.70;99.90;;;;;;4998762;28;20488;-70
2022/05/02 09:18:54;;;;;;;0.70;0.70;;;13.90;99.90;;;;;;5006067;28;20393;-69
2022/05/02 09:21:22;;;;;;;0.40;0.20;;;13.90;99.90;;;;;;5010428;28;20385;-69
2022/05/02 09:24:23;;;;;;;0.40;0.30;;;14.00;99.90;;;;;;5010115;28;20523;-71
2022/05/02 09:27:30;;;;;;;0.40;0.30;;;14.10;99.90;;;;;;5025307;28;20466;-70
2022/05/02 09:30:12;;;;;;;1.00;0.80;;;14.20;99.90;;;;;;5010846;28;20385;-69
2022/05/02 09:33:16;;;;;;;0.40;0.20;;;14.20;99.90;;;;;;5024055;28;20407;-70
2022/05/02 09:35:53;;;;;;;0.40;0.20;;;14.30;99.90;;;;;;5027001;28;20415;-69
2022/05/02 09:38:29;;;;;;;0.40;0.30;;;14.40;99.90;;;;;;5029082;28;20391;-70
2022/05/02 09:41:12;;;;;;;0.40;0.30;;;14.60;99.90;;;;;;5027662;28;20442;-70
2022/05/02 09:50:13;;;;;;;0.60;0.60;;;14.70;99.90;;;;;;5013178;28;20434;-70
2022/05/02 09:52:39;;;;;;;0.40;0.30;;;14.80;99.90;;;;;;5013120;28;20416;-71
2022/05/02 09:58:53;;;;;;;1.00;0.90;;;15.10;99.90;;;;;;5011352;28;20419;-70
2022/05/02 10:01:26;;;;;;;0.50;0.50;;;15.20;99.90;;;;;;5013078;28;20488;-71
2022/05/02 10:04:26;;;;;;;0.50;0.50;;;15.40;99.90;;;;;;5012956;28;20404;-70
2022/05/02 10:06:54;;;;;;;0.40;0.20;;;15.40;99.90;;;;;;5012804;28;20393;-71
2022/05/02 10:09:46;;;;;;;0.50;0.50;;;15.50;99.90;;;;;;5013305;28;20401;-71
2022/05/02 10:12:15;;;;;;;0.77;0.77;;;15.60;99.90;;;;;;5013906;28;20459;-71
2022/05/02 10:14:56;;;;;;;0.40;0.20;;;15.70;99.90;;;;;;5013308;28;20400;-72
2022/05/02 10:17:39;;;;;;;0.60;0.60;;;16.00;99.90;;;;;;5013695;28;20389;-70
2022/05/02 10:20:08;;;;;;;0.60;0.60;;;15.90;99.60;;;;;;5012908;28;20421;-70
2022/05/02 10:22:50;;;;;;;0.50;0.40;;;16.00;99.90;;;;;;5013366;28;20389;-70
2022/05/02 10:25:18;;;;;;;0.70;0.70;;;16.00;99.90;;;;;;5013036;28;20384;-71
2022/05/02 10:27:47;;;;;;;0.40;0.30;;;16.10;99.90;;;;;;5013420;28;20713;-70
2022/05/02 10:30:13;;;;;;;0.90;0.90;;;16.30;99.90;;;;;;5012176;28;20925;-71
2022/05/02 10:32:44;;;;;;;0.40;0.20;;;16.00;99.90;;;;;;5027694;28;20489;-70
2022/05/02 10:35:14;;;;;;;0.40;0.20;;;16.10;99.90;;;;;;5032009;28;20406;-71
2022/05/02 10:37:43;;;;;;;2.92;2.72;;;16.20;99.90;;;;;;5032494;28;20474;-70
2022/05/02 10:40:13;;;;;;;0.40;0.28;;;16.40;99.90;;;;;;5031539;28;20415;-70
2022/05/02 10:42:58;;;;;;;0.70;0.70;;;16.20;99.90;;;;;;5032773;28;20391;-71
2022/05/02 10:45:27;;;;;;;0.40;0.20;;;16.50;99.90;;;;;;5031825;28;20442;-70
2022/05/02 10:48:06;;;;;;;0.40;0.30;;;16.40;99.90;;;;;;5032573;28;20891;-70
2022/05/02 10:50:35;;;;;;;0.40;0.20;;;16.70;99.90;;;;;;5032365;28;20390;-71
2022/05/02 10:53:14;;;;;;;0.40;0.30;;;16.90;99.90;;;;;;5032439;28;20741;-71
2022/05/02 10:55:50;;;;;;;0.40;0.30;;;16.80;99.90;;;;;;5032001;28;20391;-71
2022/05/02 10:58:18;;;;;;;0.40;0.40;;;17.00;99.90;;;;;;5031184;28;20882;-70
2022/05/02 11:01:05;;;;;;;0.60;0.60;;;17.10;99.90;;;;;;5032287;28;20482;-70
2022/05/02 11:03:51;;;;;;;1.50;0.80;;;17.10;99.90;;;;;;5031513;28;20391;-70
2022/05/02 11:06:23;;;;;;;1.00;1.00;;;16.90;99.90;;;;;;5031723;28;20872;-70
2022/05/02 11:08:57;;;;;;;0.77;0.77;;;17.30;99.40;;;;;;5032513;28;20387;-70
2022/05/02 11:11:30;;;;;;;0.43;0.28;;;17.70;99.90;;;;;;5031303;28;20391;-69
2022/05/02 11:14:35;;;;;;;1.05;0.85;;;17.80;98.10;;;;;;5002805;28;20417;-72
2022/05/02 11:17:19;;;;;;;0.40;0.40;;;17.40;98.00;;;;;;5005882;28;20471;-73
2022/05/02 11:23:14;;;;;;;0.40;0.20;;;18.20;95.90;;;;;;5014394;28;20388;-73
2022/05/02 11:26:02;;;;;;;0.40;0.30;;;18.70;94.70;;;;;;5011722;28;20409;-73
2022/05/02 11:28:50;;;;;;;0.40;0.30;;;18.80;94.80;;;;;;5017984;28;20383;-73
2022/05/02 11:32:01;;;;;;;0.50;0.30;;;19.40;92.30;;;;;;5021838;28;20935;-72
2022/05/02 11:34:55;;;;;;;2.30;1.30;;;18.90;91.40;;;;;;5015276;28;20438;-75
2022/05/02 11:37:46;;;;;;;1.00;0.80;;;18.50;92.20;;;;;;5019663;28;20494;-76
2022/05/02 11:40:13;;;;;;;0.40;0.30;;;18.80;91.10;;;;;;5012672;28;20422;-74
2022/05/02 11:42:45;;;;;;;1.00;1.00;;;19.80;89.50;;;;;;5020032;28;20410;-74
2022/05/02 11:45:17;;;;;;;0.45;0.43;;;20.10;86.90;;;;;;5015687;28;20403;-75
2022/05/02 11:47:54;;;;;;;3.50;0.60;;;20.30;85.40;;;;;;5011775;28;20480;-75
2022/05/02 11:50:24;;;;;;;1.60;0.90;;;21.80;79.10;;;;;;5014232;28;20414;-72
2022/05/02 11:53:06;;;;;;;0.40;0.30;;;21.20;77.80;;;;;;5018001;28;20494;-73
2022/05/02 11:55:34;;;;;;;0.43;0.32;;;21.10;77.90;;;;;;5017951;28;20394;-72
2022/05/02 11:58:08;;;;;;;0.50;0.40;;;19.90;80.30;;;;;;5014617;28;20399;-71
2022/05/02 12:00:36;;;;;;;0.40;0.30;;;19.40;83.50;;;;;;5015593;28;20440;-74
2022/05/02 12:03:15;;;;;;;0.40;0.30;;;20.00;82.20;;;;;;5015651;28;20432;-74
2022/05/02 12:05:45;;;;;;;0.40;0.30;;;20.60;81.10;;;;;;5010012;28;20411;-73
2022/05/02 12:08:24;;;;;;;0.40;0.30;;;20.80;81.40;;;;;;5020073;28;20410;-73
2022/05/02 12:11:20;;;;;;;0.40;0.30;;;21.70;76.70;;;;;;5018864;28;20403;-73
2022/05/02 12:13:47;;;;;;;0.40;0.20;;;22.20;71.80;;;;;;5016809;28;20415;-75
2022/05/02 12:16:20;;;;;;;0.40;0.30;;;21.20;71.90;;;;;;5013339;28;20466;-74
2022/05/02 12:18:48;;;;;;;0.40;0.30;;;20.00;74.30;;;;;;5015723;28;20405;-73
2022/05/02 12:21:36;;;;;;;0.40;0.30;;;20.30;78.10;;;;;;5017820;28;20418;-72
2022/05/02 12:24:04;;;;;;;0.40;0.20;;;20.30;73.90;;;;;;5015464;28;20410;-72
2022/05/02 12:26:32;;;;;;;0.40;0.30;;;22.10;72.40;;;;;;5018737;28;20440;-72
2022/05/02 12:29:04;;;;;;;0.80;0.80;;;22.30;72.30;;;;;;5017893;28;20384;-72
2022/05/02 12:31:30;;;;;;;0.40;0.30;;;22.20;69.00;;;;;;5015525;28;20396;-74
2022/05/02 12:33:59;;;;;;;0.82;0.82;;;22.10;78.10;;;;;;5021909;28;20486;-74
2022/05/02 12:36:37;;;;;;;0.40;0.40;;;21.00;80.60;;;;;;5016386;28;20906;-73
2022/05/02 12:39:06;;;;;;;0.60;0.60;;;20.20;79.40;;;;;;5018025;28;20432;-72
2022/05/02 12:41:47;;;;;;;0.40;0.30;;;19.80;76.30;;;;;;5019097;28;20897;-74
2022/05/02 12:44:14;;;;;;;0.60;0.60;;;20.20;79.00;;;;;;5017740;28;21083;-72
2022/05/02 12:46:45;;;;;;;0.50;0.40;;;21.60;73.00;;;;;;5018247;28;20391;-73
2022/05/02 12:49:18;;;;;;;0.40;0.30;;;21.50;71.40;;;;;;5019072;28;20463;-72
2022/05/02 12:51:51;;;;;;;0.43;0.30;;;22.10;71.60;;;;;;5017272;28;20381;-73
2022/05/02 12:54:18;;;;;;;0.60;0.60;;;21.20;76.60;;;;;;5017724;28;20450;-72
2022/05/02 13:02:35;;;;;;;0.50;0.50;;;19.90;77.10;;;;;;5009177;28;20412;-75
2022/05/02 13:05:08;;;;;;;0.40;0.30;;;20.40;74.90;;;;;;5009776;28;20478;-73
2022/05/02 13:07:46;;;;;;;0.40;0.30;;;20.80;73.30;;;;;;5009883;28;20404;-72
2022/05/02 13:10:29;;;;;;;0.50;0.40;;;20.20;75.60;;;;;;5010034;28;20388;-72
2022/05/02 13:13:04;;;;;;;0.40;0.30;;;20.10;77.60;;;;;;5009887;28;20436;-73
2022/05/02 13:15:46;;;;;;;0.50;0.30;;;21.10;72.80;;;;;;5009764;28;20546;-73
2022/05/02 13:18:15;;;;;;;0.50;0.40;;;21.50;69.80;;;;;;5008444;28;20936;-73
2022/05/02 13:20:55;;;;;;;0.60;0.60;;;21.00;70.20;;;;;;5019179;28;20406;-71
2022/05/02 13:23:22;;;;;;;0.40;0.30;;;21.20;71.10;;;;;;5033437;28;20490;-72
2022/05/02 13:25:52;;;;;;;1.50;1.40;;;21.00;72.30;;;;;;5034124;28;20387;-73
2022/05/02 13:28:32;;;;;;;0.50;0.50;;;21.00;70.20;;;;;;5033343;28;20462;-72
2022/05/02 13:31:24;;;;;;;0.90;0.90;;;20.90;70.60;;;;;;4995227;28;20898;-72
2022/05/02 13:33:51;;;;;;;0.40;0.30;;;19.90;73.60;;;;;;5005164;28;20893;-72
2022/05/02 13:36:18;;;;;;;1.20;0.80;;;19.90;75.50;;;;;;5011908;28;20408;-71
2022/05/02 13:39:00;;;;;;;0.80;0.50;;;20.10;75.30;;;;;;5012704;28;20897;-73
2022/05/02 13:42:04;;;;;;;0.80;0.80;;;20.30;73.40;;;;;;5011173;28;20427;-71
2022/05/02 13:45:03;;;;;;;0.40;0.20;;;19.70;75.10;;;;;;4990081;28;20451;-72
2022/05/02 13:47:52;;;;;;;0.40;0.30;;;19.90;75.50;;;;;;5009025;28;20401;-72
2022/05/02 13:50:26;;;;;;;0.40;0.30;;;19.60;77.50;;;;;;5010793;28;20542;-72
2022/05/02 13:53:30;;;;;;;0.40;0.30;;;20.00;75.40;;;;;;5009465;28;20416;-71
2022/05/02 13:56:33;;;;;;;0.40;0.20;;;21.00;72.50;;;;;;5011830;28;20389;-74